sensor_id;sensor_type;location;lat;lon;timestamp;temperature;humidity
22629;DHT22;11481;53.694;9.910;2023-02-02T00:00:25;5.80;99.90
22629;DHT22;11481;53.694;9.910;2023-02-02T00:02:51;5.80;99.90
22629;DHT22;11481;53.694;9.910;2023-02-02T00:05:18;5.80;99.90
22629;DHT22;11481;53.694;9.910;2023-02-02T00:07:45;5.80;99.90
22629;DHT22;11481;53.694;9.910;2023-02-02T00:10:11;5.70;99.90
22629;DHT22;11481;53.694;9.910;2023-02-02T00:12:38;5.80;99.90
22629;DHT22;11481;53.694;9.910;2023-02-02T00:15:05;5.80;99.90
22629;DHT22;11481;53.694;9.910;2023-02-02T00:17:32;5.80;99.90
22629;DHT22;11481;53.694;9.910;2023-02-02T00:19:59;5.80;99.90
22629;DHT22;11481;53.694;9.910;2023-02-02T00:22:25;5.80;99.90
22629;DHT22;11481;53.694;9.910;2023-02-02T00:24:53;5.80;99.90
22629;DHT22;11481;53.694;9.910;2023-02-02T00:27:20;5.80;99.90
22629;DHT22;11481;53.694;9.910;2023-02-02T00:29:46;5.90;99.90
22629;DHT22;11481;53.694;9.910;2023-02-02T00:32:13;5.90;99.90
22629;DHT22;11481;53.694;9.910;2023-02-02T00:34:40;6.00;99.90
22629;DHT22;11481;53.694;9.910;2023-02-02T00:37:07;5.90;99.90
22629;DHT22;11481;53.694;9.910;2023-02-02T00:39:33;5.90;99.90
22629;DHT22;11481;53.694;9.910;2023-02-02T00:42:00;6.00;99.90
22629;DHT22;11481;53.694;9.910;2023-02-02T00:44:27;6.00;99.90
22629;DHT22;11481;53.694;9.910;2023-02-02T00:47:12;5.90;99.90
22629;DHT22;11481;53.694;9.910;2023-02-02T00:49:39;6.00;99.90
22629;DHT22;11481;53.694;9.910;2023-02-02T00:52:05;6.00;99.90
22629;DHT22;11481;53.694;9.910;2023-02-02T00:54:32;6.00;99.90
22629;DHT22;11481;53.694;9.910;2023-02-02T00:56:59;6.00;99.90
22629;DHT22;11481;53.694;9.910;2023-02-02T00:59:25;6.00;99.90
22629;DHT22;11481;53.694;9.910;2023-02-02T01:01:52;6.10;99.90
22629;DHT22;11481;53.694;9.910;2023-02-02T01:04:19;6.10;99.90
22629;DHT22;11481;53.694;9.910;2023-02-02T01:06:45;6.00;99.90
22629;DHT22;11481;53.694;9.910;2023-02-02T01:09:12;6.00;99.90
22629;DHT22;11481;53.694;9.910;2023-02-02T01:11:39;6.10;99.90
22629;DHT22;11481;53.694;9.910;2023-02-02T01:14:05;6.00;99.90
22629;DHT22;11481;53.694;9.910;2023-02-02T01:16:32;6.00;99.90
22629;DHT22;11481;53.694;9.910;2023-02-02T01:18:59;5.90;99.90
22629;DHT22;11481;53.694;9.910;2023-02-02T01:21:26;5.90;99.90
22629;DHT22;11481;53.694;9.910;2023-02-02T01:23:53;5.80;99.90
22629;DHT22;11481;53.694;9.910;2023-02-02T01:26:20;5.80;99.90
22629;DHT22;11481;53.694;9.910;2023-02-02T01:28:47;5.80;99.90
22629;DHT22;11481;53.694;9.910;2023-02-02T01:31:17;5.80;99.90
22629;DHT22;11481;53.694;9.910;2023-02-02T01:33:45;5.80;99.90
22629;DHT22;11481;53.694;9.910;2023-02-02T01:36:15;5.80;99.90
22629;DHT22;11481;53.694;9.910;2023-02-02T01:38:42;5.80;99.90
22629;DHT22;11481;53.694;9.910;2023-02-02T01:41:15;5.80;99.90
22629;DHT22;11481;53.694;9.910;2023-02-02T01:46:11;5.80;99.90
22629;DHT22;11481;53.694;9.910;2023-02-02T01:48:41;5.80;99.90
22629;DHT22;11481;53.694;9.910;2023-02-02T01:51:13;5.60;99.90
22629;DHT22;11481;53.694;9.910;2023-02-02T01:53:42;5.60;99.90
22629;DHT22;11481;53.694;9.910;2023-02-02T01:56:15;5.60;99.90
22629;DHT22;11481;53.694;9.910;2023-02-02T01:58:43;5.60;99.90
22629;DHT22;11481;53.694;9.910;2023-02-02T02:01:11;5.70;99.90
22629;DHT22;11481;53.694;9.910;2023-02-02T02:03:38;5.70;99.90
22629;DHT22;11481;53.694;9.910;2023-02-02T02:06:07;5.70;99.90
22629;DHT22;11481;53.694;9.910;2023-02-02T02:08:56;5.70;99.90
22629;DHT22;11481;53.694;9.910;2023-02-02T02:11:26;5.70;99.90
22629;DHT22;11481;53.694;9.910;2023-02-02T02:13:54;5.70;99.90
22629;DHT22;11481;53.694;9.910;2023-02-02T02:34:51;5.50;99.90
22629;DHT22;11481;53.694;9.910;2023-02-02T02:40:28;5.50;99.90
22629;DHT22;11481;53.694;9.910;2023-02-02T02:42:58;5.50;99.90
22629;DHT22;11481;53.694;9.910;2023-02-02T02:45:27;5.50;99.90
22629;DHT22;11481;53.694;9.910;2023-02-02T02:47:54;5.60;99.90
22629;DHT22;11481;53.694;9.910;2023-02-02T02:50:21;5.50;99.90
22629;DHT22;11481;53.694;9.910;2023-02-02T02:52:52;5.60;99.90
22629;DHT22;11481;53.694;9.910;2023-02-02T02:55:22;5.60;99.90
22629;DHT22;11481;53.694;9.910;2023-02-02T02:58:03;5.60;99.90
22629;DHT22;11481;53.694;9.910;2023-02-02T03:00:51;5.70;99.90
22629;DHT22;11481;53.694;9.910;2023-02-02T03:03:30;5.70;99.90
22629;DHT22;11481;53.694;9.910;2023-02-02T03:06:20;5.70;99.90
22629;DHT22;11481;53.694;9.910;2023-02-02T03:08:54;5.70;99.90
22629;DHT22;11481;53.694;9.910;2023-02-02T03:11:23;5.70;99.90
22629;DHT22;11481;53.694;9.910;2023-02-02T03:13:51;5.10;99.90
22629;DHT22;11481;53.694;9.910;2023-02-02T03:16:18;5.00;99.90
22629;DHT22;11481;53.694;9.910;2023-02-02T03:18:44;4.80;99.90
22629;DHT22;11481;53.694;9.910;2023-02-02T03:21:11;4.80;99.90
22629;DHT22;11481;53.694;9.910;2023-02-02T03:23:38;4.90;99.90
22629;DHT22;11481;53.694;9.910;2023-02-02T03:26:05;4.90;99.90
22629;DHT22;11481;53.694;9.910;2023-02-02T03:28:32;5.00;99.90
22629;DHT22;11481;53.694;9.910;2023-02-02T03:31:00;5.10;99.90
22629;DHT22;11481;53.694;9.910;2023-02-02T03:33:29;5.10;99.90
22629;DHT22;11481;53.694;9.910;2023-02-02T03:35:57;5.20;99.90
22629;DHT22;11481;53.694;9.910;2023-02-02T03:38:23;5.20;99.90
22629;DHT22;11481;53.694;9.910;2023-02-02T03:40:50;5.30;99.90
22629;DHT22;11481;53.694;9.910;2023-02-02T03:43:26;5.30;99.90
22629;DHT22;11481;53.694;9.910;2023-02-02T03:45:57;5.30;99.90
22629;DHT22;11481;53.694;9.910;2023-02-02T03:48:25;5.30;99.90
22629;DHT22;11481;53.694;9.910;2023-02-02T03:50:52;5.40;99.90
22629;DHT22;11481;53.694;9.910;2023-02-02T03:53:19;5.40;99.90
22629;DHT22;11481;53.694;9.910;2023-02-02T03:55:46;5.30;99.90
22629;DHT22;11481;53.694;9.910;2023-02-02T03:58:13;5.30;99.90
22629;DHT22;11481;53.694;9.910;2023-02-02T04:00:40;5.30;99.90
22629;DHT22;11481;53.694;9.910;2023-02-02T04:03:07;5.30;99.90
22629;DHT22;11481;53.694;9.910;2023-02-02T04:05:33;5.30;99.90
22629;DHT22;11481;53.694;9.910;2023-02-02T04:08:00;5.30;99.90
22629;DHT22;11481;53.694;9.910;2023-02-02T04:10:27;5.30;99.90
22629;DHT22;11481;53.694;9.910;2023-02-02T04:12:54;5.30;99.90
22629;DHT22;11481;53.694;9.910;2023-02-02T04:15:20;5.20;99.90
22629;DHT22;11481;53.694;9.910;2023-02-02T04:17:47;5.20;99.90
22629;DHT22;11481;53.694;9.910;2023-02-02T04:20:14;5.20;99.90
22629;DHT22;11481;53.694;9.910;2023-02-02T04:22:41;5.30;99.90
22629;DHT22;11481;53.694;9.910;2023-02-02T04:25:08;5.30;99.90
22629;DHT22;11481;53.694;9.910;2023-02-02T04:27:35;5.20;99.90
22629;DHT22;11481;53.694;9.910;2023-02-02T04:30:01;5.20;99.90
22629;DHT22;11481;53.694;9.910;2023-02-02T04:32:28;5.20;99.90
22629;DHT22;11481;53.694;9.910;2023-02-02T04:34:55;5.20;99.90
22629;DHT22;11481;53.694;9.910;2023-02-02T04:37:22;5.20;99.90
22629;DHT22;11481;53.694;9.910;2023-02-02T04:39:48;5.30;99.90
22629;DHT22;11481;53.694;9.910;2023-02-02T04:42:16;5.30;99.90
22629;DHT22;11481;53.694;9.910;2023-02-02T04:44:42;5.20;99.90
22629;DHT22;11481;53.694;9.910;2023-02-02T04:47:11;5.30;99.90
22629;DHT22;11481;53.694;9.910;2023-02-02T04:49:37;5.30;99.90
22629;DHT22;11481;53.694;9.910;2023-02-02T04:52:04;5.40;99.90
22629;DHT22;11481;53.694;9.910;2023-02-02T04:54:32;5.40;99.90
22629;DHT22;11481;53.694;9.910;2023-02-02T04:56:58;5.40;99.90
22629;DHT22;11481;53.694;9.910;2023-02-02T04:59:27;5.40;99.90
22629;DHT22;11481;53.694;9.910;2023-02-02T05:02:00;5.40;99.90
22629;DHT22;11481;53.694;9.910;2023-02-02T05:04:27;5.40;99.90
22629;DHT22;11481;53.694;9.910;2023-02-02T05:06:54;5.30;99.90
22629;DHT22;11481;53.694;9.910;2023-02-02T05:09:21;5.30;99.90
22629;DHT22;11481;53.694;9.910;2023-02-02T05:11:48;5.30;99.90
22629;DHT22;11481;53.694;9.910;2023-02-02T05:14:14;5.20;99.90
22629;DHT22;11481;53.694;9.910;2023-02-02T05:16:44;5.10;99.90
22629;DHT22;11481;53.694;9.910;2023-02-02T05:19:11;5.10;99.90
22629;DHT22;11481;53.694;9.910;2023-02-02T05:21:38;5.20;99.90
22629;DHT22;11481;53.694;9.910;2023-02-02T05:24:05;5.20;99.90
22629;DHT22;11481;53.694;9.910;2023-02-02T05:26:31;5.30;99.90
22629;DHT22;11481;53.694;9.910;2023-02-02T05:28:58;5.20;99.90
22629;DHT22;11481;53.694;9.910;2023-02-02T05:31:25;5.20;99.90
22629;DHT22;11481;53.694;9.910;2023-02-02T05:33:52;5.30;99.90
22629;DHT22;11481;53.694;9.910;2023-02-02T05:36:18;5.30;99.90
22629;DHT22;11481;53.694;9.910;2023-02-02T05:38:45;5.30;99.90
22629;DHT22;11481;53.694;9.910;2023-02-02T05:41:12;5.30;99.90
22629;DHT22;11481;53.694;9.910;2023-02-02T05:43:38;5.30;99.90
22629;DHT22;11481;53.694;9.910;2023-02-02T05:46:05;5.40;99.90
22629;DHT22;11481;53.694;9.910;2023-02-02T05:48:32;5.40;99.90
22629;DHT22;11481;53.694;9.910;2023-02-02T05:51:04;5.50;99.90
22629;DHT22;11481;53.694;9.910;2023-02-02T05:53:32;5.40;99.90
22629;DHT22;11481;53.694;9.910;2023-02-02T05:55:59;5.50;99.90
22629;DHT22;11481;53.694;9.910;2023-02-02T05:58:26;5.50;99.90
22629;DHT22;11481;53.694;9.910;2023-02-02T06:00:54;5.50;99.90
22629;DHT22;11481;53.694;9.910;2023-02-02T06:03:22;5.50;99.90
22629;DHT22;11481;53.694;9.910;2023-02-02T06:05:49;5.50;99.90
22629;DHT22;11481;53.694;9.910;2023-02-02T06:08:16;5.50;99.90
22629;DHT22;11481;53.694;9.910;2023-02-02T06:10:42;5.50;99.90
22629;DHT22;11481;53.694;9.910;2023-02-02T06:13:09;5.40;99.90
22629;DHT22;11481;53.694;9.910;2023-02-02T06:15:36;5.40;99.90
22629;DHT22;11481;53.694;9.910;2023-02-02T06:18:03;5.50;99.90
22629;DHT22;11481;53.694;9.910;2023-02-02T06:20:32;5.50;99.90
22629;DHT22;11481;53.694;9.910;2023-02-02T06:22:59;5.50;99.90
22629;DHT22;11481;53.694;9.910;2023-02-02T06:25:28;5.50;99.90
22629;DHT22;11481;53.694;9.910;2023-02-02T06:27:58;5.50;99.90
22629;DHT22;11481;53.694;9.910;2023-02-02T06:30:26;5.50;99.90
22629;DHT22;11481;53.694;9.910;2023-02-02T06:32:53;5.60;99.90
22629;DHT22;11481;53.694;9.910;2023-02-02T06:35:20;5.60;99.90
22629;DHT22;11481;53.694;9.910;2023-02-02T06:37:47;5.60;99.90
22629;DHT22;11481;53.694;9.910;2023-02-02T06:40:14;5.60;99.90
22629;DHT22;11481;53.694;9.910;2023-02-02T06:42:41;5.60;99.90
22629;DHT22;11481;53.694;9.910;2023-02-02T06:45:08;5.60;99.90
22629;DHT22;11481;53.694;9.910;2023-02-02T06:47:35;5.60;99.90
22629;DHT22;11481;53.694;9.910;2023-02-02T06:50:02;5.60;99.90
22629;DHT22;11481;53.694;9.910;2023-02-02T06:52:29;5.50;99.90
22629;DHT22;11481;53.694;9.910;2023-02-02T06:54:57;5.40;99.90
22629;DHT22;11481;53.694;9.910;2023-02-02T06:57:24;5.40;99.90
22629;DHT22;11481;53.694;9.910;2023-02-02T06:59:51;5.40;99.90
22629;DHT22;11481;53.694;9.910;2023-02-02T07:02:18;5.40;99.90
22629;DHT22;11481;53.694;9.910;2023-02-02T07:04:45;5.40;99.90
22629;DHT22;11481;53.694;9.910;2023-02-02T07:07:12;5.50;99.90
22629;DHT22;11481;53.694;9.910;2023-02-02T07:09:39;5.40;99.90
22629;DHT22;11481;53.694;9.910;2023-02-02T07:12:05;5.40;99.90
22629;DHT22;11481;53.694;9.910;2023-02-02T07:14:32;5.40;99.90
22629;DHT22;11481;53.694;9.910;2023-02-02T07:17:00;5.30;99.90
22629;DHT22;11481;53.694;9.910;2023-02-02T07:19:26;5.40;99.90
22629;DHT22;11481;53.694;9.910;2023-02-02T07:21:53;5.30;99.90
22629;DHT22;11481;53.694;9.910;2023-02-02T07:24:20;5.30;99.90
22629;DHT22;11481;53.694;9.910;2023-02-02T07:26:47;5.30;99.90
22629;DHT22;11481;53.694;9.910;2023-02-02T07:29:14;5.30;99.90
22629;DHT22;11481;53.694;9.910;2023-02-02T07:31:41;5.30;99.90
22629;DHT22;11481;53.694;9.910;2023-02-02T07:34:08;5.30;99.90
22629;DHT22;11481;53.694;9.910;2023-02-02T07:36:35;5.30;99.90
22629;DHT22;11481;53.694;9.910;2023-02-02T07:39:03;5.30;99.90
22629;DHT22;11481;53.694;9.910;2023-02-02T07:41:32;5.30;99.90
22629;DHT22;11481;53.694;9.910;2023-02-02T07:43:59;5.40;99.90
22629;DHT22;11481;53.694;9.910;2023-02-02T07:46:25;5.40;99.90
22629;DHT22;11481;53.694;9.910;2023-02-02T07:48:53;5.40;99.90
22629;DHT22;11481;53.694;9.910;2023-02-02T07:51:21;5.40;99.90
22629;DHT22;11481;53.694;9.910;2023-02-02T07:53:50;5.30;99.90
22629;DHT22;11481;53.694;9.910;2023-02-02T07:56:23;5.30;99.90
22629;DHT22;11481;53.694;9.910;2023-02-02T07:58:54;5.30;99.90
22629;DHT22;11481;53.694;9.910;2023-02-02T08:01:22;5.30;99.90
22629;DHT22;11481;53.694;9.910;2023-02-02T08:03:52;5.30;99.90
22629;DHT22;11481;53.694;9.910;2023-02-02T08:06:34;5.30;99.90
22629;DHT22;11481;53.694;9.910;2023-02-02T08:09:03;5.30;99.90
22629;DHT22;11481;53.694;9.910;2023-02-02T08:11:30;5.40;99.90
22629;DHT22;11481;53.694;9.910;2023-02-02T08:13:59;5.40;99.90
22629;DHT22;11481;53.694;9.910;2023-02-02T08:16:27;5.40;99.90
22629;DHT22;11481;53.694;9.910;2023-02-02T08:18:55;5.50;99.90
22629;DHT22;11481;53.694;9.910;2023-02-02T08:21:22;5.40;99.90
22629;DHT22;11481;53.694;9.910;2023-02-02T08:23:50;5.40;99.90
22629;DHT22;11481;53.694;9.910;2023-02-02T08:26:23;5.50;99.90
22629;DHT22;11481;53.694;9.910;2023-02-02T08:28:55;5.50;99.90
22629;DHT22;11481;53.694;9.910;2023-02-02T08:31:26;5.50;99.90
22629;DHT22;11481;53.694;9.910;2023-02-02T08:33:54;5.60;99.90
22629;DHT22;11481;53.694;9.910;2023-02-02T08:36:22;5.60;99.90
22629;DHT22;11481;53.694;9.910;2023-02-02T08:38:49;5.60;99.90
22629;DHT22;11481;53.694;9.910;2023-02-02T08:41:18;5.70;99.90
22629;DHT22;11481;53.694;9.910;2023-02-02T08:43:46;5.80;99.90
22629;DHT22;11481;53.694;9.910;2023-02-02T08:46:14;5.80;99.90
22629;DHT22;11481;53.694;9.910;2023-02-02T08:48:42;5.90;99.90
22629;DHT22;11481;53.694;9.910;2023-02-02T08:51:11;5.90;99.90
22629;DHT22;11481;53.694;9.910;2023-02-02T08:53:43;6.10;99.90
22629;DHT22;11481;53.694;9.910;2023-02-02T08:56:12;6.10;99.90
22629;DHT22;11481;53.694;9.910;2023-02-02T08:58:44;6.20;99.90
22629;DHT22;11481;53.694;9.910;2023-02-02T09:01:23;6.20;99.90
22629;DHT22;11481;53.694;9.910;2023-02-02T09:03:54;6.00;99.90
22629;DHT22;11481;53.694;9.910;2023-02-02T09:06:29;5.90;99.90
22629;DHT22;11481;53.694;9.910;2023-02-02T09:08:56;5.90;99.90
22629;DHT22;11481;53.694;9.910;2023-02-02T09:11:23;5.90;99.90
22629;DHT22;11481;53.694;9.910;2023-02-02T09:13:54;6.00;99.90
22629;DHT22;11481;53.694;9.910;2023-02-02T09:16:22;6.00;99.90
22629;DHT22;11481;53.694;9.910;2023-02-02T09:18:49;6.10;99.90
22629;DHT22;11481;53.694;9.910;2023-02-02T09:21:17;6.10;99.90
22629;DHT22;11481;53.694;9.910;2023-02-02T09:23:46;6.20;99.90
22629;DHT22;11481;53.694;9.910;2023-02-02T09:26:21;6.20;99.90
22629;DHT22;11481;53.694;9.910;2023-02-02T09:29:00;6.30;99.90
22629;DHT22;11481;53.694;9.910;2023-02-02T09:31:31;6.30;99.90
22629;DHT22;11481;53.694;9.910;2023-02-02T09:34:03;6.30;99.90
22629;DHT22;11481;53.694;9.910;2023-02-02T09:36:32;6.40;99.90
22629;DHT22;11481;53.694;9.910;2023-02-02T09:38:58;6.50;99.90
22629;DHT22;11481;53.694;9.910;2023-02-02T09:47:28;6.60;99.90
22629;DHT22;11481;53.694;9.910;2023-02-02T09:50:23;6.60;99.90
22629;DHT22;11481;53.694;9.910;2023-02-02T09:55:45;6.70;99.90
22629;DHT22;11481;53.694;9.910;2023-02-02T10:01:12;6.60;99.90
22629;DHT22;11481;53.694;9.910;2023-02-02T10:04:05;6.60;99.90
22629;DHT22;11481;53.694;9.910;2023-02-02T10:06:41;6.70;99.90
22629;DHT22;11481;53.694;9.910;2023-02-02T10:14:40;6.80;99.90
22629;DHT22;11481;53.694;9.910;2023-02-02T10:17:39;6.80;99.90
22629;DHT22;11481;53.694;9.910;2023-02-02T10:20:23;6.90;99.90
22629;DHT22;11481;53.694;9.910;2023-02-02T10:22:53;7.00;99.90
22629;DHT22;11481;53.694;9.910;2023-02-02T10:25:21;7.00;99.90
22629;DHT22;11481;53.694;9.910;2023-02-02T10:28:04;7.10;99.90
22629;DHT22;11481;53.694;9.910;2023-02-02T10:30:57;7.20;99.90
22629;DHT22;11481;53.694;9.910;2023-02-02T10:33:38;7.20;99.90
22629;DHT22;11481;53.694;9.910;2023-02-02T10:36:24;7.30;99.90
22629;DHT22;11481;53.694;9.910;2023-02-02T10:39:16;7.30;99.90
22629;DHT22;11481;53.694;9.910;2023-02-02T10:42:21;7.10;99.90
22629;DHT22;11481;53.694;9.910;2023-02-02T10:45:02;7.20;99.90
22629;DHT22;11481;53.694;9.910;2023-02-02T10:47:34;7.30;99.90
22629;DHT22;11481;53.694;9.910;2023-02-02T10:50:17;7.10;99.90
22629;DHT22;11481;53.694;9.910;2023-02-02T10:52:53;7.20;99.90
22629;DHT22;11481;53.694;9.910;2023-02-02T10:55:40;7.20;99.90
22629;DHT22;11481;53.694;9.910;2023-02-02T11:00:42;7.20;99.90
22629;DHT22;11481;53.694;9.910;2023-02-02T11:03:18;7.40;99.90
22629;DHT22;11481;53.694;9.910;2023-02-02T11:05:46;7.40;99.90
22629;DHT22;11481;53.694;9.910;2023-02-02T11:08:35;7.60;99.90
22629;DHT22;11481;53.694;9.910;2023-02-02T11:13:46;7.60;99.90
22629;DHT22;11481;53.694;9.910;2023-02-02T11:18:43;7.20;99.90
22629;DHT22;11481;53.694;9.910;2023-02-02T11:24:40;7.40;99.90
22629;DHT22;11481;53.694;9.910;2023-02-02T11:26:49;7.60;99.90
22629;DHT22;11481;53.694;9.910;2023-02-02T11:29:28;7.80;99.90
22629;DHT22;11481;53.694;9.910;2023-02-02T11:31:56;7.90;99.90
22629;DHT22;11481;53.694;9.910;2023-02-02T11:34:26;7.80;99.90
22629;DHT22;11481;53.694;9.910;2023-02-02T11:37:12;7.70;99.90
22629;DHT22;11481;53.694;9.910;2023-02-02T11:39:43;7.70;99.90
22629;DHT22;11481;53.694;9.910;2023-02-02T11:42:13;7.60;99.90
22629;DHT22;11481;53.694;9.910;2023-02-02T11:44:53;7.50;99.90
22629;DHT22;11481;53.694;9.910;2023-02-02T11:47:26;7.50;99.90
22629;DHT22;11481;53.694;9.910;2023-02-02T11:49:54;7.50;99.90
22629;DHT22;11481;53.694;9.910;2023-02-02T11:52:27;7.50;99.90
22629;DHT22;11481;53.694;9.910;2023-02-02T11:55:00;7.50;99.90
22629;DHT22;11481;53.694;9.910;2023-02-02T11:57:28;7.60;99.90
22629;DHT22;11481;53.694;9.910;2023-02-02T12:00:15;7.60;99.90
22629;DHT22;11481;53.694;9.910;2023-02-02T12:02:47;7.90;99.90
22629;DHT22;11481;53.694;9.910;2023-02-02T12:07:49;8.00;99.90
22629;DHT22;11481;53.694;9.910;2023-02-02T12:10:19;8.10;99.90
22629;DHT22;11481;53.694;9.910;2023-02-02T12:15:58;8.10;99.90
22629;DHT22;11481;53.694;9.910;2023-02-02T12:27:08;7.80;99.90
22629;DHT22;11481;53.694;9.910;2023-02-02T12:32:57;7.80;99.90
22629;DHT22;11481;53.694;9.910;2023-02-02T12:41:29;7.80;99.90
22629;DHT22;11481;53.694;9.910;2023-02-02T12:44:09;7.80;99.90
22629;DHT22;11481;53.694;9.910;2023-02-02T12:47:00;7.90;99.90
22629;DHT22;11481;53.694;9.910;2023-02-02T12:55:03;7.80;99.90
22629;DHT22;11481;53.694;9.910;2023-02-02T13:08:57;8.30;99.90
22629;DHT22;11481;53.694;9.910;2023-02-02T13:11:40;8.40;99.90
22629;DHT22;11481;53.694;9.910;2023-02-02T13:14:26;8.40;99.90
22629;DHT22;11481;53.694;9.910;2023-02-02T13:17:20;8.40;99.90
22629;DHT22;11481;53.694;9.910;2023-02-02T13:19:51;8.40;99.90
22629;DHT22;11481;53.694;9.910;2023-02-02T13:22:24;8.40;99.90
22629;DHT22;11481;53.694;9.910;2023-02-02T13:24:55;8.40;99.90
22629;DHT22;11481;53.694;9.910;2023-02-02T13:27:26;8.30;99.90
22629;DHT22;11481;53.694;9.910;2023-02-02T13:30:09;8.30;99.90
22629;DHT22;11481;53.694;9.910;2023-02-02T13:32:41;8.40;99.90
22629;DHT22;11481;53.694;9.910;2023-02-02T13:35:22;8.40;99.90
22629;DHT22;11481;53.694;9.910;2023-02-02T13:38:26;8.30;99.90
22629;DHT22;11481;53.694;9.910;2023-02-02T13:40:56;8.30;99.90
22629;DHT22;11481;53.694;9.910;2023-02-02T13:54:32;8.30;99.90
22629;DHT22;11481;53.694;9.910;2023-02-02T14:00:18;8.20;99.90
22629;DHT22;11481;53.694;9.910;2023-02-02T14:02:50;8.30;99.90
22629;DHT22;11481;53.694;9.910;2023-02-02T14:05:27;8.20;99.90
22629;DHT22;11481;53.694;9.910;2023-02-02T14:08:19;8.00;99.90
22629;DHT22;11481;53.694;9.910;2023-02-02T14:13:32;7.90;99.90
22629;DHT22;11481;53.694;9.910;2023-02-02T14:16:43;7.90;99.90
22629;DHT22;11481;53.694;9.910;2023-02-02T14:24:41;7.90;99.90
22629;DHT22;11481;53.694;9.910;2023-02-02T14:29:57;7.90;99.90
22629;DHT22;11481;53.694;9.910;2023-02-02T14:34:54;7.90;99.90
22629;DHT22;11481;53.694;9.910;2023-02-02T14:45:28;8.00;99.90
22629;DHT22;11481;53.694;9.910;2023-02-02T14:48:09;8.00;99.90
22629;DHT22;11481;53.694;9.910;2023-02-02T14:53:16;8.10;99.90
22629;DHT22;11481;53.694;9.910;2023-02-02T14:56:06;8.20;99.90
22629;DHT22;11481;53.694;9.910;2023-02-02T14:58:57;8.20;99.90
22629;DHT22;11481;53.694;9.910;2023-02-02T15:01:29;8.10;99.90
22629;DHT22;11481;53.694;9.910;2023-02-02T15:14:40;7.60;99.90
22629;DHT22;11481;53.694;9.910;2023-02-02T15:33:58;7.20;99.90
22629;DHT22;11481;53.694;9.910;2023-02-02T15:36:30;7.30;99.90
22629;DHT22;11481;53.694;9.910;2023-02-02T15:39:00;7.30;99.90
22629;DHT22;11481;53.694;9.910;2023-02-02T15:41:33;7.20;99.90
22629;DHT22;11481;53.694;9.910;2023-02-02T15:44:17;7.20;99.90
22629;DHT22;11481;53.694;9.910;2023-02-02T15:46:44;7.20;99.90
22629;DHT22;11481;53.694;9.910;2023-02-02T15:49:26;7.20;99.90
22629;DHT22;11481;53.694;9.910;2023-02-02T15:52:11;7.20;99.90
22629;DHT22;11481;53.694;9.910;2023-02-02T15:54:51;7.20;99.90
22629;DHT22;11481;53.694;9.910;2023-02-02T15:57:26;7.20;99.90
22629;DHT22;11481;53.694;9.910;2023-02-02T15:59:56;7.20;99.90
22629;DHT22;11481;53.694;9.910;2023-02-02T16:02:39;7.30;99.90
22629;DHT22;11481;53.694;9.910;2023-02-02T16:08:05;7.20;99.90
22629;DHT22;11481;53.694;9.910;2023-02-02T16:10:33;7.10;99.90
22629;DHT22;11481;53.694;9.910;2023-02-02T16:13:01;7.00;99.90
22629;DHT22;11481;53.694;9.910;2023-02-02T16:15:29;7.00;99.90
22629;DHT22;11481;53.694;9.910;2023-02-02T16:18:05;7.00;99.90
22629;DHT22;11481;53.694;9.910;2023-02-02T16:20:34;7.00;99.90
22629;DHT22;11481;53.694;9.910;2023-02-02T16:23:03;7.10;99.90
22629;DHT22;11481;53.694;9.910;2023-02-02T16:25:35;7.00;99.90
22629;DHT22;11481;53.694;9.910;2023-02-02T16:28:02;6.90;99.90
22629;DHT22;11481;53.694;9.910;2023-02-02T16:30:32;6.90;99.90
22629;DHT22;11481;53.694;9.910;2023-02-02T16:36:24;7.00;99.90
22629;DHT22;11481;53.694;9.910;2023-02-02T16:38:52;7.00;99.90
22629;DHT22;11481;53.694;9.910;2023-02-02T16:41:35;7.00;99.90
22629;DHT22;11481;53.694;9.910;2023-02-02T16:44:27;7.00;99.90
22629;DHT22;11481;53.694;9.910;2023-02-02T16:46:57;6.90;99.90
22629;DHT22;11481;53.694;9.910;2023-02-02T16:49:25;6.90;99.90
22629;DHT22;11481;53.694;9.910;2023-02-02T16:54:38;7.00;99.90
22629;DHT22;11481;53.694;9.910;2023-02-02T16:57:15;7.00;99.90
22629;DHT22;11481;53.694;9.910;2023-02-02T16:59:47;7.10;99.90
22629;DHT22;11481;53.694;9.910;2023-02-02T17:02:33;7.20;99.90
22629;DHT22;11481;53.694;9.910;2023-02-02T17:05:14;7.30;99.90
22629;DHT22;11481;53.694;9.910;2023-02-02T17:07:50;7.40;99.90
22629;DHT22;11481;53.694;9.910;2023-02-02T17:10:25;7.40;99.90
22629;DHT22;11481;53.694;9.910;2023-02-02T17:12:53;7.50;99.90
22629;DHT22;11481;53.694;9.910;2023-02-02T17:15:34;7.40;99.90
22629;DHT22;11481;53.694;9.910;2023-02-02T17:18:03;7.40;99.90
22629;DHT22;11481;53.694;9.910;2023-02-02T17:20:31;7.40;99.90
22629;DHT22;11481;53.694;9.910;2023-02-02T17:23:05;7.30;99.90
22629;DHT22;11481;53.694;9.910;2023-02-02T17:25:39;7.40;99.90
22629;DHT22;11481;53.694;9.910;2023-02-02T17:28:10;7.30;99.90
22629;DHT22;11481;53.694;9.910;2023-02-02T17:30:46;7.30;99.90
22629;DHT22;11481;53.694;9.910;2023-02-02T17:33:15;7.30;99.90
22629;DHT22;11481;53.694;9.910;2023-02-02T17:35:45;7.30;99.90
22629;DHT22;11481;53.694;9.910;2023-02-02T17:38:22;7.30;99.90
22629;DHT22;11481;53.694;9.910;2023-02-02T17:40:49;7.30;99.90
22629;DHT22;11481;53.694;9.910;2023-02-02T17:43:16;7.40;99.90
22629;DHT22;11481;53.694;9.910;2023-02-02T17:45:43;7.40;99.90
22629;DHT22;11481;53.694;9.910;2023-02-02T17:48:12;7.30;99.90
22629;DHT22;11481;53.694;9.910;2023-02-02T17:50:40;7.30;99.90
22629;DHT22;11481;53.694;9.910;2023-02-02T17:53:12;7.20;99.90
22629;DHT22;11481;53.694;9.910;2023-02-02T17:55:41;7.20;99.90
22629;DHT22;11481;53.694;9.910;2023-02-02T17:58:10;7.20;99.90
22629;DHT22;11481;53.694;9.910;2023-02-02T18:00:39;7.20;99.90
22629;DHT22;11481;53.694;9.910;2023-02-02T18:05:37;7.20;99.90
22629;DHT22;11481;53.694;9.910;2023-02-02T18:08:12;7.20;99.90
22629;DHT22;11481;53.694;9.910;2023-02-02T18:10:40;7.10;99.90
22629;DHT22;11481;53.694;9.910;2023-02-02T18:13:07;7.20;99.90
22629;DHT22;11481;53.694;9.910;2023-02-02T18:15:35;7.20;99.90
22629;DHT22;11481;53.694;9.910;2023-02-02T18:18:02;7.20;99.90
22629;DHT22;11481;53.694;9.910;2023-02-02T18:20:28;7.10;99.90
22629;DHT22;11481;53.694;9.910;2023-02-02T18:22:55;7.10;99.90
22629;DHT22;11481;53.694;9.910;2023-02-02T18:25:23;7.10;99.90
22629;DHT22;11481;53.694;9.910;2023-02-02T18:27:51;7.10;99.90
22629;DHT22;11481;53.694;9.910;2023-02-02T18:30:20;7.10;99.90
22629;DHT22;11481;53.694;9.910;2023-02-02T18:32:47;7.10;99.90
22629;DHT22;11481;53.694;9.910;2023-02-02T18:35:15;7.10;99.90
22629;DHT22;11481;53.694;9.910;2023-02-02T18:37:41;7.10;99.90
22629;DHT22;11481;53.694;9.910;2023-02-02T18:40:08;7.10;99.90
22629;DHT22;11481;53.694;9.910;2023-02-02T18:42:35;7.10;99.90
22629;DHT22;11481;53.694;9.910;2023-02-02T18:45:03;7.10;99.90
22629;DHT22;11481;53.694;9.910;2023-02-02T18:47:30;7.10;99.90
22629;DHT22;11481;53.694;9.910;2023-02-02T18:49:57;7.10;99.90
22629;DHT22;11481;53.694;9.910;2023-02-02T18:52:24;7.10;99.90
22629;DHT22;11481;53.694;9.910;2023-02-02T18:54:51;7.10;99.90
22629;DHT22;11481;53.694;9.910;2023-02-02T18:57:17;7.00;99.90